North Granby, Connecticut
Current Conditions -  °F | °C
As of 8:51 AM on Monday 24 Nov 2014 (Local Time) from KBDL Reporting Station
Light Rain Light Rain  
Wind Chill: 63°   Ceiling: 1000
Heat Index: 63°   Visibility: 5mi
Dew Point: 59°   Wind: 16mph
Humidity: 87%   Direction: 190°S
Pressure: 29.67"   Gusts: 25mph
Location:  42.02°N, 72.84°W
Report Text: KBDL 241351Z 19014G22KT 5SM -RA BR FEW007 BKN010 OVC015 17/15 A2967 RMK AO2 PK WND 17029/1252 SLP047 P0006 T01720150
Loading
Personal Weather Stations






























Interactive Weather Map New forecast layout! Learn more

10-Day Weather Forecast

Advertisements
Track Severe Weather on mobile